RJFR/KKJ METAR and TAF weather

Enter ICAO airport designator
Station Type Date Time Source
RJFR METAR 2021/04/17 01:14 UTC NOAA

RJFR 170114Z 21007KT 9999 -RA FEW004 SCT080 BKN090 15/14 Q1014 RMK 1ST004 3AC080 6AC090 A2996


Station Type Date Time Source
RJFR Decoded METAR 2021/04/17 01:14 UTC NOAA

Kitakyushu Airport, Japan (RJFR) 33-50N 130-57E 6M
Apr 16, 2021 - 09:14 PM EDT / 2021.04.17 0114 UTC
Wind: from the SSW (210 degrees) at 8 MPH (7 KT):0
Visibility: greater than 7 mile(s):0
Sky conditions: mostly cloudy
Weather: light rain
Temperature: 59 F (15 C)
Dew Point: 57 F (14 C)
Relative Humidity: 93%
Pressure (altimeter): 29.94 in. Hg (1014 hPa)
ob: RJFR 170114Z 21007KT 9999 -RA FEW004 SCT080 BKN090 15/14 Q1014 RMK 1ST004 3AC080 6AC090 A2996
cycle: 1

Station Type Date Time Source
RJFR TAF 2021/04/16 18:00 UTC NOAA

TAF RJFR 161708Z 1618/1800 07008KT 8000 -SHRA FEW008 SCT010 BKN015
BECMG 1618/1620 14012KT
TEMPO 1621/1700 4000 -SHRA BR FEW005 BKN008 BKN015
BECMG 1704/1706 28015KT
BECMG 1706/1709 27020G30KT

Example: see airport list